Time;durP1;ratioP1;P1;durP2;ratioP2;P2;SDS_P1;SDS_P2;PMS_P1;PMS_P2;Temp;Humidity;BMP_temperature;BMP_pressure;BME280_temperature;BME280_humidity;BME280_pressure;Samples;Min_cycle;Max_cycle;Signal;HPM_P1;HPM_P2
2022/01/06 00:01:13;;;;;;;2.50;1.10;;;;;;;;;;4932788;28;20074;-80
2022/01/06 00:03:39;;;;;;;3.45;1.50;;;;;;;;;;4938279;29;20035;-71
2022/01/06 00:06:08;;;;;;;3.00;1.52;;;;;;;;;;4934619;29;20082;-77
2022/01/06 00:08:35;;;;;;;8.80;2.10;;;;;;;;;;4931059;28;20430;-72
2022/01/06 00:11:01;;;;;;;2.38;1.40;;;;;;;;;;4943160;28;20039;-74
2022/01/06 00:13:44;;;;;;;1.20;1.10;;;;;;;;;;4940832;29;20046;-72
2022/01/06 00:16:26;;;;;;;1.48;1.20;;;;;;;;;;4933904;29;20523;-70
2022/01/06 00:24:12;;;;;;;11.10;1.45;;;;;;;;;;4941735;28;20050;-73
2022/01/06 00:26:38;;;;;;;1.00;1.00;;;;;;;;;;4931446;29;20078;-73
2022/01/06 00:29:04;;;;;;;1.95;1.30;;;;;;;;;;4944445;28;20141;-79
2022/01/06 00:31:31;;;;;;;6.60;1.42;;;;;;;;;;4932135;28;20464;-71
2022/01/06 00:33:56;;;;;;;2.80;1.40;;;;;;;;;;4937573;28;20032;-73
2022/01/06 00:36:22;;;;;;;2.38;1.10;;;;;;;;;;4936743;29;20047;-74
2022/01/06 00:38:47;;;;;;;4.28;1.40;;;;;;;;;;4931955;28;20051;-74
2022/01/06 00:41:13;;;;;;;3.45;1.38;;;;;;;;;;4938278;28;20073;-72
2022/01/06 00:43:38;;;;;;;1.25;1.00;;;;;;;;;;4935923;28;20027;-74
2022/01/06 00:46:04;;;;;;;3.42;1.50;;;;;;;;;;4934770;29;20469;-78
2022/01/06 00:48:29;;;;;;;1.15;1.13;;;;;;;;;;4937877;29;20050;-73
2022/01/06 00:50:55;;;;;;;3.83;0.90;;;;;;;;;;4942290;28;20039;-79
2022/01/06 00:53:20;;;;;;;2.58;1.10;;;;;;;;;;4933238;28;20309;-74
2022/01/06 00:55:46;;;;;;;1.70;1.27;;;;;;;;;;4942486;28;20110;-76
2022/01/06 00:58:11;;;;;;;2.10;0.90;;;;;;;;;;4939945;28;20074;-70
2022/01/06 01:00:41;;;;;;;14.98;1.80;;;;;;;;;;4937781;28;20211;-71
2022/01/06 01:03:16;;;;;;;5.43;1.70;;;;;;;;;;4936018;28;20074;-74
2022/01/06 01:05:44;;;;;;;2.47;1.25;;;;;;;;;;4923590;28;20122;-71
2022/01/06 01:08:11;;;;;;;2.50;1.48;;;;;;;;;;4935684;29;20123;-73
2022/01/06 01:10:37;;;;;;;2.42;1.25;;;;;;;;;;4935415;29;20031;-77
2022/01/06 01:13:04;;;;;;;8.18;2.35;;;;;;;;;;4932848;29;20110;-72
2022/01/06 01:15:32;;;;;;;4.03;1.20;;;;;;;;;;4940555;28;20040;-70
2022/01/06 01:18:05;;;;;;;9.77;2.50;;;;;;;;;;4942720;28;20393;-72
2022/01/06 01:20:32;;;;;;;4.82;1.23;;;;;;;;;;4932406;29;20512;-73
2022/01/06 01:22:58;;;;;;;1.10;1.00;;;;;;;;;;4943111;28;20039;-75
2022/01/06 01:25:23;;;;;;;7.53;1.42;;;;;;;;;;4935023;28;20066;-73
2022/01/06 01:27:49;;;;;;;3.47;0.73;;;;;;;;;;4940863;28;20118;-78
2022/01/06 01:30:15;;;;;;;7.18;1.27;;;;;;;;;;4932565;29;20118;-71
2022/01/06 01:32:49;;;;;;;1.80;1.00;;;;;;;;;;4932485;28;20047;-70
2022/01/06 01:35:15;;;;;;;4.78;1.33;;;;;;;;;;4943436;29;20116;-71
2022/01/06 01:37:40;;;;;;;2.95;1.27;;;;;;;;;;4933467;28;20077;-71
2022/01/06 01:40:08;;;;;;;3.10;1.20;;;;;;;;;;4943267;28;20130;-70
2022/01/06 01:42:34;;;;;;;4.10;1.40;;;;;;;;;;4942642;28;20046;-70
2022/01/06 01:45:02;;;;;;;2.50;1.48;;;;;;;;;;4942986;28;20106;-69
2022/01/06 01:47:31;;;;;;;5.50;1.63;;;;;;;;;;4939213;28;20119;-70
2022/01/06 01:50:20;;;;;;;2.92;1.65;;;;;;;;;;4943235;28;20062;-70
2022/01/06 01:52:51;;;;;;;7.70;1.60;;;;;;;;;;4934955;29;20046;-71
2022/01/06 01:55:22;;;;;;;2.92;1.45;;;;;;;;;;4940886;28;20035;-70
2022/01/06 01:57:50;;;;;;;2.08;1.50;;;;;;;;;;4940185;28;20035;-70
2022/01/06 02:00:18;;;;;;;9.38;1.45;;;;;;;;;;4938806;28;20047;-68
2022/01/06 02:02:44;;;;;;;2.15;1.02;;;;;;;;;;4954522;28;20148;-70
2022/01/06 02:05:10;;;;;;;5.85;1.23;;;;;;;;;;4931065;29;20480;-68
2022/01/06 02:07:38;;;;;;;3.97;1.23;;;;;;;;;;4940916;29;20394;-71
2022/01/06 02:10:05;;;;;;;2.10;1.38;;;;;;;;;;4942068;28;20091;-70
2022/01/06 02:12:33;;;;;;;2.33;1.15;;;;;;;;;;4942307;28;20042;-68
2022/01/06 02:14:59;;;;;;;1.30;0.93;;;;;;;;;;4942461;28;20377;-68
2022/01/06 02:17:25;;;;;;;2.42;1.10;;;;;;;;;;4940735;28;20054;-70
2022/01/06 02:20:01;;;;;;;3.30;1.23;;;;;;;;;;4941462;28;20038;-68
2022/01/06 02:22:27;;;;;;;3.90;1.13;;;;;;;;;;4932120;28;20035;-69
2022/01/06 02:24:53;;;;;;;1.70;1.00;;;;;;;;;;4926642;28;20042;-68
2022/01/06 02:27:20;;;;;;;8.13;1.75;;;;;;;;;;4941758;29;20043;-70
2022/01/06 02:29:50;;;;;;;3.97;1.60;;;;;;;;;;4942362;28;20046;-70
2022/01/06 02:32:17;;;;;;;1.50;1.33;;;;;;;;;;4943741;28;20037;-70
2022/01/06 02:34:44;;;;;;;1.73;1.38;;;;;;;;;;4938317;28;20050;-70
2022/01/06 02:37:11;;;;;;;1.52;1.08;;;;;;;;;;4942336;28;20067;-70
2022/01/06 02:39:37;;;;;;;2.38;1.13;;;;;;;;;;4936923;29;20070;-71
2022/01/06 02:42:03;;;;;;;5.55;2.05;;;;;;;;;;4937981;28;20126;-69
2022/01/06 02:44:29;;;;;;;7.43;1.75;;;;;;;;;;4942322;28;20126;-69
2022/01/06 02:46:54;;;;;;;5.88;1.83;;;;;;;;;;4937976;28;20122;-68
2022/01/06 02:49:20;;;;;;;3.08;1.35;;;;;;;;;;4941598;29;20043;-70
2022/01/06 02:51:46;;;;;;;4.68;1.30;;;;;;;;;;4942055;28;20031;-70
2022/01/06 02:54:13;;;;;;;4.13;1.20;;;;;;;;;;4944094;28;20852;-70
2022/01/06 02:56:39;;;;;;;1.50;1.27;;;;;;;;;;4960407;28;20531;-71
2022/01/06 02:59:04;;;;;;;1.77;1.05;;;;;;;;;;4945563;28;20126;-70
2022/01/06 03:01:30;;;;;;;1.23;0.70;;;;;;;;;;4939267;28;20464;-69
2022/01/06 03:03:55;;;;;;;7.07;1.17;;;;;;;;;;4930532;29;20035;-71
2022/01/06 03:06:21;;;;;;;2.08;1.13;;;;;;;;;;4944374;28;20031;-70
2022/01/06 03:08:46;;;;;;;2.17;1.25;;;;;;;;;;4928501;29;20042;-70
2022/01/06 03:11:12;;;;;;;5.55;1.83;;;;;;;;;;4942423;29;20041;-69
2022/01/06 03:13:37;;;;;;;2.65;1.27;;;;;;;;;;4943877;29;20110;-70
2022/01/06 03:16:03;;;;;;;3.80;1.27;;;;;;;;;;4944091;28;20511;-69
2022/01/06 03:18:30;;;;;;;3.65;1.50;;;;;;;;;;4942081;28;20046;-69
2022/01/06 03:20:55;;;;;;;5.30;2.00;;;;;;;;;;4945313;29;20050;-67
2022/01/06 03:23:21;;;;;;;2.50;1.52;;;;;;;;;;4945031;29;20035;-69
2022/01/06 03:25:47;;;;;;;3.58;1.48;;;;;;;;;;4945600;28;20032;-70
2022/01/06 03:28:12;;;;;;;5.25;1.52;;;;;;;;;;4958538;28;20039;-69
2022/01/06 03:30:38;;;;;;;3.38;1.00;;;;;;;;;;4942430;28;20031;-67
2022/01/06 03:33:04;;;;;;;1.50;1.23;;;;;;;;;;4938325;29;20069;-68
2022/01/06 03:35:31;;;;;;;3.38;1.38;;;;;;;;;;4934678;29;20175;-69
2022/01/06 03:37:56;;;;;;;0.80;0.70;;;;;;;;;;4943614;28;20031;-67
2022/01/06 03:40:22;;;;;;;4.18;1.45;;;;;;;;;;4937639;28;20554;-69
2022/01/06 03:42:48;;;;;;;5.00;1.30;;;;;;;;;;4945227;28;20035;-70
2022/01/06 03:45:16;;;;;;;2.20;0.88;;;;;;;;;;4943506;28;20246;-69
2022/01/06 03:47:41;;;;;;;3.03;1.35;;;;;;;;;;4932262;28;20044;-69
2022/01/06 03:50:09;;;;;;;2.47;1.13;;;;;;;;;;4943092;28;20183;-70
2022/01/06 03:52:35;;;;;;;3.03;1.35;;;;;;;;;;4944496;28;20068;-70
2022/01/06 03:55:01;;;;;;;1.85;0.93;;;;;;;;;;4944773;29;20031;-67
2022/01/06 03:57:27;;;;;;;3.22;1.38;;;;;;;;;;4942717;29;20110;-70
2022/01/06 03:59:52;;;;;;;4.03;1.42;;;;;;;;;;4944047;28;20047;-69
2022/01/06 04:02:17;;;;;;;7.18;1.23;;;;;;;;;;4925800;29;20062;-68
2022/01/06 04:04:43;;;;;;;4.18;1.15;;;;;;;;;;4944575;28;20039;-70
2022/01/06 04:07:08;;;;;;;3.08;0.95;;;;;;;;;;4943066;29;20118;-69
2022/01/06 04:09:34;;;;;;;5.50;1.48;;;;;;;;;;4944342;28;20778;-71
2022/01/06 04:11:59;;;;;;;3.00;0.75;;;;;;;;;;4942457;28;20122;-70
2022/01/06 04:14:25;;;;;;;4.03;1.05;;;;;;;;;;4919878;29;20039;-67
2022/01/06 04:16:57;;;;;;;0.73;0.73;;;;;;;;;;4943016;28;20027;-68
2022/01/06 04:19:23;;;;;;;1.50;1.38;;;;;;;;;;4944132;28;20042;-70
2022/01/06 04:21:48;;;;;;;9.93;0.80;;;;;;;;;;4934087;28;20031;-69
2022/01/06 04:24:14;;;;;;;1.52;0.95;;;;;;;;;;4942136;28;20046;-70
2022/01/06 04:26:39;;;;;;;1.30;1.20;;;;;;;;;;4942998;28;20074;-69
2022/01/06 04:29:04;;;;;;;1.63;1.48;;;;;;;;;;4943659;28;20075;-69
2022/01/06 04:31:30;;;;;;;4.75;1.58;;;;;;;;;;4941217;29;20069;-70
2022/01/06 04:33:55;;;;;;;2.72;1.13;;;;;;;;;;4930399;28;20035;-70
2022/01/06 04:36:21;;;;;;;1.83;1.20;;;;;;;;;;4925106;28;20111;-69
2022/01/06 04:38:47;;;;;;;3.38;1.00;;;;;;;;;;4941729;28;20035;-70
2022/01/06 04:41:12;;;;;;;6.22;1.67;;;;;;;;;;4936507;28;20035;-70
2022/01/06 04:43:38;;;;;;;2.80;1.27;;;;;;;;;;4942415;28;20071;-70
2022/01/06 04:46:03;;;;;;;2.45;1.08;;;;;;;;;;4929108;28;21049;-69
2022/01/06 04:48:29;;;;;;;5.18;1.52;;;;;;;;;;4943022;29;20038;-69
2022/01/06 04:50:54;;;;;;;3.42;1.30;;;;;;;;;;4942732;29;20030;-70
2022/01/06 04:53:20;;;;;;;2.50;1.52;;;;;;;;;;4942500;28;20492;-70
2022/01/06 04:55:45;;;;;;;3.10;1.20;;;;;;;;;;4929589;28;20112;-70
2022/01/06 04:58:11;;;;;;;1.98;1.58;;;;;;;;;;4924040;28;20123;-70
2022/01/06 05:00:36;;;;;;;3.15;1.65;;;;;;;;;;4942011;29;20406;-70
2022/01/06 05:03:02;;;;;;;2.13;1.27;;;;;;;;;;4941825;29;20079;-70
2022/01/06 05:05:27;;;;;;;5.80;1.67;;;;;;;;;;4923278;28;20054;-69
2022/01/06 05:07:52;;;;;;;4.55;1.73;;;;;;;;;;4930378;28;20074;-69
2022/01/06 05:10:18;;;;;;;3.45;1.35;;;;;;;;;;4940666;29;20061;-70
2022/01/06 05:12:45;;;;;;;1.00;1.00;;;;;;;;;;4943251;28;20038;-70
2022/01/06 05:15:12;;;;;;;2.40;1.50;;;;;;;;;;4942196;29;20042;-69
2022/01/06 05:17:39;;;;;;;4.18;1.20;;;;;;;;;;4932589;28;20053;-70
2022/01/06 05:20:05;;;;;;;1.10;0.85;;;;;;;;;;4935300;28;20039;-70
2022/01/06 05:22:32;;;;;;;1.65;0.88;;;;;;;;;;4942558;28;20397;-70
2022/01/06 05:24:57;;;;;;;3.05;1.75;;;;;;;;;;4943634;29;20093;-70
2022/01/06 05:27:23;;;;;;;2.75;1.25;;;;;;;;;;4933295;28;20031;-70
2022/01/06 05:29:49;;;;;;;3.85;1.00;;;;;;;;;;4931435;28;20139;-70
2022/01/06 05:32:14;;;;;;;2.00;1.60;;;;;;;;;;4931173;29;20426;-70
2022/01/06 05:34:40;;;;;;;1.33;1.25;;;;;;;;;;4926067;29;20449;-70
2022/01/06 05:37:05;;;;;;;8.32;1.83;;;;;;;;;;4932447;29;20089;-69
2022/01/06 05:39:31;;;;;;;1.73;1.63;;;;;;;;;;4940203;28;20133;-70
2022/01/06 05:41:56;;;;;;;6.53;1.83;;;;;;;;;;4929229;28;20039;-70
2022/01/06 05:44:22;;;;;;;2.35;1.85;;;;;;;;;;4942617;28;20043;-71
2022/01/06 05:46:48;;;;;;;5.93;2.08;;;;;;;;;;4939602;29;20568;-70
2022/01/06 05:49:15;;;;;;;4.93;1.75;;;;;;;;;;4939390;28;20045;-71
2022/01/06 05:51:40;;;;;;;1.38;1.27;;;;;;;;;;4932588;28;20393;-71
2022/01/06 05:54:06;;;;;;;6.35;1.90;;;;;;;;;;4938097;29;20035;-69
2022/01/06 05:56:32;;;;;;;5.15;1.73;;;;;;;;;;4925705;29;20928;-71
2022/01/06 05:58:57;;;;;;;1.90;1.13;;;;;;;;;;4940928;28;20035;-71
2022/01/06 06:01:23;;;;;;;1.98;1.25;;;;;;;;;;4933486;28;20040;-71
2022/01/06 06:03:49;;;;;;;7.93;1.20;;;;;;;;;;4934753;28;20035;-70
2022/01/06 06:06:15;;;;;;;4.70;1.67;;;;;;;;;;4926089;29;20386;-71
2022/01/06 06:08:40;;;;;;;2.22;1.95;;;;;;;;;;4930094;29;20046;-71
2022/01/06 06:11:06;;;;;;;2.78;1.48;;;;;;;;;;4922588;29;20028;-70
2022/01/06 06:13:32;;;;;;;0.90;0.90;;;;;;;;;;4924638;28;20184;-70
2022/01/06 06:15:57;;;;;;;1.00;1.00;;;;;;;;;;4923753;28;20088;-72
2022/01/06 06:18:22;;;;;;;1.75;1.30;;;;;;;;;;4937413;28;20035;-70
2022/01/06 06:20:48;;;;;;;4.93;1.75;;;;;;;;;;4927086;28;20524;-72
2022/01/06 06:23:13;;;;;;;3.55;1.95;;;;;;;;;;4925413;28;20395;-68
2022/01/06 06:25:39;;;;;;;2.47;1.30;;;;;;;;;;4924868;28;20089;-71
2022/01/06 06:28:04;;;;;;;2.95;1.60;;;;;;;;;;4926184;29;20047;-69
2022/01/06 06:30:30;;;;;;;2.67;1.33;;;;;;;;;;4938855;29;20076;-70
2022/01/06 06:32:55;;;;;;;2.00;1.35;;;;;;;;;;4940907;28;20123;-71
2022/01/06 06:35:21;;;;;;;2.38;1.25;;;;;;;;;;4922411;28;20405;-69
2022/01/06 06:37:47;;;;;;;4.10;1.40;;;;;;;;;;4939222;29;20127;-70
2022/01/06 06:40:13;;;;;;;1.20;1.10;;;;;;;;;;4940610;28;20122;-71
2022/01/06 06:42:38;;;;;;;3.03;1.98;;;;;;;;;;4931666;29;20576;-71
2022/01/06 06:45:04;;;;;;;2.33;1.65;;;;;;;;;;4940584;28;21079;-70
2022/01/06 06:47:30;;;;;;;1.73;1.40;;;;;;;;;;4934359;28;20451;-71
2022/01/06 06:49:59;;;;;;;1.05;0.82;;;;;;;;;;4941475;28;20035;-69
2022/01/06 06:52:25;;;;;;;4.32;1.52;;;;;;;;;;4926188;29;20044;-69
2022/01/06 06:54:51;;;;;;;2.65;1.30;;;;;;;;;;4934966;28;20404;-70
2022/01/06 06:57:16;;;;;;;3.75;1.25;;;;;;;;;;4932977;28;20047;-70
2022/01/06 06:59:42;;;;;;;1.25;1.15;;;;;;;;;;4930996;29;20855;-70
2022/01/06 07:02:07;;;;;;;1.58;1.23;;;;;;;;;;4937071;28;20036;-69
2022/01/06 07:04:33;;;;;;;1.55;1.00;;;;;;;;;;4930448;29;20043;-69
2022/01/06 07:06:58;;;;;;;0.75;0.75;;;;;;;;;;4930608;28;20083;-69
2022/01/06 07:09:24;;;;;;;2.20;1.10;;;;;;;;;;4930233;28;20075;-71
2022/01/06 07:11:49;;;;;;;1.25;1.08;;;;;;;;;;4927465;29;20508;-69
2022/01/06 07:14:15;;;;;;;1.38;0.90;;;;;;;;;;4927788;29;20039;-72
2022/01/06 07:16:40;;;;;;;9.45;1.52;;;;;;;;;;4930296;28;20044;-69
2022/01/06 07:19:06;;;;;;;1.55;1.35;;;;;;;;;;4926649;28;20031;-70
2022/01/06 07:21:31;;;;;;;1.92;1.10;;;;;;;;;;4929406;28;20048;-69
2022/01/06 07:23:57;;;;;;;1.75;0.80;;;;;;;;;;4935035;29;20035;-69
2022/01/06 07:26:22;;;;;;;1.48;1.08;;;;;;;;;;4930407;29;20045;-71
2022/01/06 07:28:48;;;;;;;0.60;0.60;;;;;;;;;;4933860;28;20035;-71
2022/01/06 07:31:13;;;;;;;1.40;0.85;;;;;;;;;;4931029;28;20028;-71
2022/01/06 07:33:39;;;;;;;1.60;1.20;;;;;;;;;;4941916;29;20393;-71
2022/01/06 07:36:05;;;;;;;2.63;1.27;;;;;;;;;;4945243;28;20102;-70
2022/01/06 07:38:30;;;;;;;1.75;1.65;;;;;;;;;;4942116;29;20038;-70
2022/01/06 07:40:56;;;;;;;0.90;0.90;;;;;;;;;;4932115;28;20067;-69
2022/01/06 07:43:23;;;;;;;1.13;1.10;;;;;;;;;;4941047;28;20036;-70
2022/01/06 07:45:49;;;;;;;4.47;1.80;;;;;;;;;;4935175;29;20040;-71
2022/01/06 07:48:17;;;;;;;3.33;1.25;;;;;;;;;;4939910;29;20490;-70
2022/01/06 07:50:44;;;;;;;1.52;1.17;;;;;;;;;;4929963;28;20497;-68
2022/01/06 07:53:10;;;;;;;1.90;1.13;;;;;;;;;;4931818;28;21046;-70
2022/01/06 07:55:36;;;;;;;2.60;1.13;;;;;;;;;;4927446;29;20048;-69
2022/01/06 07:58:02;;;;;;;1.08;1.08;;;;;;;;;;4931936;29;20090;-71
2022/01/06 08:00:28;;;;;;;0.93;0.90;;;;;;;;;;4936668;29;20071;-70
2022/01/06 08:02:53;;;;;;;2.90;1.30;;;;;;;;;;4929093;28;20078;-71
2022/01/06 08:05:22;;;;;;;2.13;0.95;;;;;;;;;;4930581;28;20451;-73
2022/01/06 08:07:48;;;;;;;0.90;0.90;;;;;;;;;;4933093;28;20039;-71
2022/01/06 08:10:13;;;;;;;1.48;1.02;;;;;;;;;;4930041;29;20032;-70
2022/01/06 08:12:39;;;;;;;3.63;1.67;;;;;;;;;;4931370;28;20035;-69
2022/01/06 08:15:06;;;;;;;4.80;1.30;;;;;;;;;;4931650;28;20038;-73
2022/01/06 08:17:33;;;;;;;1.95;1.45;;;;;;;;;;4932557;29;20903;-69
2022/01/06 08:19:58;;;;;;;0.85;0.85;;;;;;;;;;4934316;28;20091;-70
2022/01/06 08:22:24;;;;;;;0.90;0.77;;;;;;;;;;4933058;29;20040;-69
2022/01/06 08:24:52;;;;;;;4.18;0.93;;;;;;;;;;4928658;28;20071;-69
2022/01/06 08:27:18;;;;;;;4.85;1.65;;;;;;;;;;4928069;28;20063;-69
2022/01/06 08:29:44;;;;;;;12.13;1.33;;;;;;;;;;4930157;29;20045;-69
2022/01/06 08:32:09;;;;;;;1.08;0.98;;;;;;;;;;4928938;28;20035;-69
2022/01/06 08:34:35;;;;;;;0.70;0.70;;;;;;;;;;4929144;28;20043;-69
2022/01/06 08:37:00;;;;;;;1.60;1.50;;;;;;;;;;4931241;28;20045;-69
2022/01/06 08:39:26;;;;;;;2.53;1.23;;;;;;;;;;4929591;29;20460;-69
2022/01/06 08:41:53;;;;;;;2.20;1.35;;;;;;;;;;4928335;29;20038;-73
2022/01/06 08:44:22;;;;;;;1.90;1.10;;;;;;;;;;4940486;28;20094;-71
2022/01/06 08:46:48;;;;;;;0.93;0.88;;;;;;;;;;4927814;28;20063;-70
2022/01/06 08:49:15;;;;;;;1.30;1.15;;;;;;;;;;4927761;28;20145;-69
2022/01/06 08:51:40;;;;;;;1.40;1.25;;;;;;;;;;4937266;28;20027;-72
2022/01/06 08:54:06;;;;;;;3.50;1.42;;;;;;;;;;4942769;28;20618;-73
2022/01/06 08:56:33;;;;;;;9.95;1.63;;;;;;;;;;4924782;28;20105;-74
2022/01/06 08:58:59;;;;;;;3.90;1.10;;;;;;;;;;4934580;28;20035;-72
2022/01/06 09:01:24;;;;;;;1.98;0.95;;;;;;;;;;4937784;29;20085;-76
2022/01/06 09:03:50;;;;;;;1.83;1.25;;;;;;;;;;4936574;29;20162;-71
2022/01/06 09:06:16;;;;;;;2.75;1.10;;;;;;;;;;4937569;29;20035;-72
2022/01/06 09:08:41;;;;;;;4.05;1.55;;;;;;;;;;4937606;28;20438;-75
2022/01/06 09:11:07;;;;;;;1.80;1.13;;;;;;;;;;4928401;28;20039;-69
2022/01/06 09:13:33;;;;;;;0.80;0.80;;;;;;;;;;4929619;28;20122;-69
2022/01/06 09:15:58;;;;;;;1.92;1.10;;;;;;;;;;4937607;28;20118;-67
2022/01/06 09:18:24;;;;;;;1.27;1.15;;;;;;;;;;4937208;28;20175;-70
2022/01/06 09:20:50;;;;;;;4.07;1.40;;;;;;;;;;4934431;28;20035;-73
2022/01/06 09:23:15;;;;;;;2.85;1.77;;;;;;;;;;4935368;29;20118;-76
2022/01/06 09:25:41;;;;;;;1.33;1.23;;;;;;;;;;4935741;29;20038;-70
2022/01/06 09:28:06;;;;;;;2.05;1.10;;;;;;;;;;4935783;29;20604;-70
2022/01/06 09:30:32;;;;;;;4.20;1.80;;;;;;;;;;4935177;28;20031;-71
2022/01/06 09:32:57;;;;;;;1.08;1.08;;;;;;;;;;4933760;28;20035;-75
2022/01/06 09:35:23;;;;;;;1.70;1.33;;;;;;;;;;4934883;28;20112;-72
2022/01/06 09:37:49;;;;;;;1.60;1.40;;;;;;;;;;4931862;29;20094;-71
2022/01/06 09:40:15;;;;;;;1.85;1.45;;;;;;;;;;4934673;28;20657;-74
2022/01/06 09:42:42;;;;;;;1.27;1.25;;;;;;;;;;4933603;28;20035;-76
2022/01/06 09:45:08;;;;;;;0.88;0.88;;;;;;;;;;4937348;28;20401;-74
2022/01/06 09:47:34;;;;;;;1.27;1.20;;;;;;;;;;4927498;29;20039;-69
2022/01/06 09:49:59;;;;;;;2.70;1.52;;;;;;;;;;4935384;29;20548;-69
2022/01/06 09:52:25;;;;;;;2.45;0.90;;;;;;;;;;4936232;28;20070;-69
2022/01/06 09:54:51;;;;;;;1.40;1.30;;;;;;;;;;4933756;28;20034;-73
2022/01/06 09:57:16;;;;;;;1.23;1.15;;;;;;;;;;4936344;29;20027;-74
2022/01/06 09:59:44;;;;;;;3.63;1.60;;;;;;;;;;4936390;29;20067;-76
2022/01/06 10:02:16;;;;;;;3.88;1.88;;;;;;;;;;4931322;28;20058;-72
2022/01/06 10:04:43;;;;;;;3.35;1.55;;;;;;;;;;4928985;28;20058;-72
2022/01/06 10:07:15;;;;;;;1.58;1.48;;;;;;;;;;4932336;29;20051;-75
2022/01/06 10:09:41;;;;;;;1.55;0.90;;;;;;;;;;4923279;29;20082;-74
2022/01/06 10:12:11;;;;;;;3.30;1.58;;;;;;;;;;4934904;29;20031;-76
2022/01/06 10:14:44;;;;;;;4.03;1.52;;;;;;;;;;4930499;28;20508;-74
2022/01/06 10:17:15;;;;;;;1.77;1.27;;;;;;;;;;4935207;28;20038;-73
2022/01/06 10:19:43;;;;;;;1.27;1.13;;;;;;;;;;4948280;28;20572;-73
2022/01/06 10:22:17;;;;;;;3.90;1.60;;;;;;;;;;4939262;28;20063;-74
2022/01/06 10:24:45;;;;;;;2.33;1.40;;;;;;;;;;4946607;28;20522;-74
2022/01/06 10:27:13;;;;;;;3.30;2.35;;;;;;;;;;4933790;28;20456;-75
2022/01/06 10:29:49;;;;;;;1.27;1.17;;;;;;;;;;4930706;29;20091;-75
2022/01/06 10:32:20;;;;;;;5.50;2.15;;;;;;;;;;4944224;28;20050;-74
2022/01/06 10:34:50;;;;;;;5.47;1.73;;;;;;;;;;4952714;28;20157;-73
2022/01/06 10:37:17;;;;;;;2.45;1.85;;;;;;;;;;4936305;28;20039;-74
2022/01/06 10:39:45;;;;;;;5.32;2.10;;;;;;;;;;4920310;29;20047;-75
2022/01/06 10:42:12;;;;;;;3.97;2.00;;;;;;;;;;4931209;29;20430;-74
2022/01/06 10:44:53;;;;;;;1.65;1.55;;;;;;;;;;4933303;28;20490;-73
2022/01/06 10:47:33;;;;;;;2.85;1.85;;;;;;;;;;4954647;28;20039;-73
2022/01/06 10:50:14;;;;;;;5.05;2.42;;;;;;;;;;4940495;28;20047;-73
2022/01/06 10:52:43;;;;;;;3.20;1.85;;;;;;;;;;4944070;29;21047;-75
2022/01/06 10:55:13;;;;;;;1.45;1.35;;;;;;;;;;4933297;29;20475;-72
2022/01/06 10:57:55;;;;;;;2.53;2.22;;;;;;;;;;4950569;28;20039;-72
2022/01/06 11:00:23;;;;;;;5.40;2.05;;;;;;;;;;4935463;28;20050;-73
2022/01/06 11:02:49;;;;;;;5.15;1.60;;;;;;;;;;4934707;29;20031;-75
2022/01/06 11:05:15;;;;;;;2.33;1.88;;;;;;;;;;4937296;29;20034;-72
2022/01/06 11:07:41;;;;;;;6.80;2.22;;;;;;;;;;4937356;29;20042;-75
2022/01/06 11:10:14;;;;;;;2.92;1.98;;;;;;;;;;4950166;28;20039;-74
2022/01/06 11:12:40;;;;;;;4.32;2.05;;;;;;;;;;4929951;28;20122;-74
2022/01/06 11:15:07;;;;;;;5.18;2.50;;;;;;;;;;4925450;29;20114;-73
2022/01/06 11:17:33;;;;;;;3.55;2.03;;;;;;;;;;4944169;29;20229;-72
2022/01/06 11:19:59;;;;;;;4.82;2.25;;;;;;;;;;4939612;28;20035;-76
2022/01/06 11:22:26;;;;;;;2.22;2.03;;;;;;;;;;4936718;28;20946;-76
2022/01/06 11:24:53;;;;;;;4.18;2.75;;;;;;;;;;4936894;29;20114;-76
2022/01/06 11:27:31;;;;;;;5.80;1.95;;;;;;;;;;4933867;29;20091;-75
2022/01/06 11:30:08;;;;;;;2.85;1.67;;;;;;;;;;4936828;29;20090;-75
2022/01/06 11:32:33;;;;;;;2.30;1.80;;;;;;;;;;4933299;28;20477;-73
2022/01/06 11:35:11;;;;;;;2.60;2.40;;;;;;;;;;4927561;29;20039;-75
2022/01/06 11:37:52;;;;;;;2.88;1.67;;;;;;;;;;4940049;29;20038;-75
2022/01/06 11:40:40;;;;;;;3.42;2.70;;;;;;;;;;4936018;29;20042;-74
2022/01/06 11:43:06;;;;;;;2.10;1.90;;;;;;;;;;4928127;28;20098;-74
2022/01/06 11:45:32;;;;;;;2.33;1.67;;;;;;;;;;4943147;28;20039;-73
2022/01/06 11:48:08;;;;;;;3.03;1.88;;;;;;;;;;4928395;29;20489;-74
2022/01/06 11:50:39;;;;;;;2.33;2.00;;;;;;;;;;4927381;29;21276;-74
2022/01/06 11:53:05;;;;;;;1.70;1.43;;;;;;;;;;4923542;28;20046;-74
2022/01/06 11:55:41;;;;;;;4.85;2.45;;;;;;;;;;4928640;28;20067;-74
2022/01/06 11:58:08;;;;;;;3.60;2.83;;;;;;;;;;4925664;29;20071;-74
2022/01/06 12:00:35;;;;;;;3.15;1.92;;;;;;;;;;4929493;29;20523;-75
2022/01/06 12:03:06;;;;;;;8.15;4.07;;;;;;;;;;4935297;29;20146;-75
2022/01/06 12:05:49;;;;;;;10.07;2.60;;;;;;;;;;4941749;28;20119;-75
2022/01/06 12:08:16;;;;;;;3.78;2.20;;;;;;;;;;4935424;28;20063;-73
2022/01/06 12:10:50;;;;;;;2.70;2.22;;;;;;;;;;4948733;28;20067;-73
2022/01/06 12:13:17;;;;;;;5.93;2.90;;;;;;;;;;4942544;29;20054;-74
2022/01/06 12:15:47;;;;;;;4.18;2.53;;;;;;;;;;4939066;28;20027;-73
2022/01/06 12:18:20;;;;;;;5.38;2.38;;;;;;;;;;4919955;29;20505;-74
2022/01/06 12:20:47;;;;;;;2.92;1.98;;;;;;;;;;4942610;28;20040;-74
2022/01/06 12:23:13;;;;;;;3.47;2.60;;;;;;;;;;4926814;29;20046;-74
2022/01/06 12:25:39;;;;;;;3.83;2.88;;;;;;;;;;4946810;28;20039;-77
2022/01/06 12:28:09;;;;;;;6.32;2.85;;;;;;;;;;4931267;28;20074;-74
2022/01/06 12:30:38;;;;;;;3.13;2.70;;;;;;;;;;4933382;29;20146;-74
2022/01/06 12:33:09;;;;;;;1.40;1.30;;;;;;;;;;4933739;29;20043;-72
2022/01/06 12:35:44;;;;;;;2.55;2.17;;;;;;;;;;4938034;29;20082;-75
2022/01/06 12:38:11;;;;;;;6.55;2.75;;;;;;;;;;4951932;28;20039;-71
2022/01/06 12:40:40;;;;;;;4.90;3.30;;;;;;;;;;4937634;28;20035;-72
2022/01/06 12:43:23;;;;;;;6.78;2.95;;;;;;;;;;4934393;28;20031;-71
2022/01/06 12:46:06;;;;;;;5.15;2.97;;;;;;;;;;4930993;29;20035;-73
2022/01/06 12:48:40;;;;;;;3.92;2.80;;;;;;;;;;4929735;28;20039;-74
2022/01/06 12:51:11;;;;;;;3.10;2.65;;;;;;;;;;4932029;28;20070;-76
2022/01/06 12:53:40;;;;;;;4.28;2.97;;;;;;;;;;4940060;29;20037;-76
2022/01/06 12:56:06;;;;;;;5.57;2.83;;;;;;;;;;4934084;28;20031;-75
2022/01/06 12:58:37;;;;;;;4.13;2.42;;;;;;;;;;4926243;28;20094;-77
2022/01/06 13:01:05;;;;;;;3.70;1.67;;;;;;;;;;4937739;28;20445;-75
2022/01/06 13:03:32;;;;;;;1.83;1.58;;;;;;;;;;4931731;28;20044;-76
2022/01/06 13:05:59;;;;;;;5.63;1.83;;;;;;;;;;4932534;28;20039;-74
2022/01/06 13:08:25;;;;;;;3.05;1.85;;;;;;;;;;4928559;29;20050;-75
2022/01/06 13:11:06;;;;;;;2.88;2.15;;;;;;;;;;4934944;28;20397;-76
2022/01/06 13:13:44;;;;;;;3.05;2.45;;;;;;;;;;4937380;28;20142;-74
2022/01/06 13:16:15;;;;;;;1.63;1.52;;;;;;;;;;4936219;29;20038;-74
2022/01/06 13:19:11;;;;;;;6.72;2.45;;;;;;;;;;4932988;29;20054;-75
2022/01/06 13:21:45;;;;;;;4.13;2.67;;;;;;;;;;4933987;28;20035;-74
2022/01/06 13:24:15;;;;;;;3.83;2.50;;;;;;;;;;4934240;28;20746;-75
2022/01/06 13:26:45;;;;;;;5.82;2.80;;;;;;;;;;4924656;28;20131;-74
2022/01/06 13:29:12;;;;;;;4.03;2.90;;;;;;;;;;4940952;29;21045;-75
2022/01/06 13:31:37;;;;;;;4.53;2.10;;;;;;;;;;4931356;28;21068;-75
2022/01/06 13:34:03;;;;;;;9.25;3.13;;;;;;;;;;4935068;28;20031;-74
2022/01/06 13:36:33;;;;;;;5.32;2.83;;;;;;;;;;4932357;29;20393;-73
2022/01/06 13:39:11;;;;;;;4.72;2.47;;;;;;;;;;4934406;28;20496;-73
2022/01/06 13:41:42;;;;;;;3.80;2.50;;;;;;;;;;4935533;29;20586;-71
2022/01/06 13:44:12;;;;;;;1.80;1.60;;;;;;;;;;4938953;28;20067;-70
2022/01/06 13:46:51;;;;;;;1.42;1.33;;;;;;;;;;4950647;28;20039;-71
2022/01/06 13:52:16;;;;;;;4.63;2.95;;;;;;;;;;4932135;29;20035;-76
2022/01/06 13:54:41;;;;;;;6.30;1.58;;;;;;;;;;4935394;28;20476;-71
2022/01/06 13:57:11;;;;;;;4.95;2.03;;;;;;;;;;4939589;28;20070;-69
2022/01/06 13:59:39;;;;;;;3.75;1.85;;;;;;;;;;4940241;29;20026;-70
2022/01/06 14:02:05;;;;;;;3.80;2.10;;;;;;;;;;4954003;28;20040;-72
2022/01/06 14:04:32;;;;;;;5.80;2.45;;;;;;;;;;4927257;28;20040;-73
2022/01/06 14:06:57;;;;;;;6.00;2.40;;;;;;;;;;4928505;28;20500;-71
2022/01/06 14:09:23;;;;;;;3.83;2.17;;;;;;;;;;4934596;29;20039;-71
2022/01/06 14:11:48;;;;;;;2.03;1.63;;;;;;;;;;4953073;28;20046;-74
2022/01/06 14:14:14;;;;;;;4.75;3.03;;;;;;;;;;4928803;29;20082;-74
2022/01/06 14:16:40;;;;;;;2.95;2.13;;;;;;;;;;4940543;28;20055;-74
2022/01/06 14:19:05;;;;;;;9.30;2.42;;;;;;;;;;4933600;28;20027;-74
2022/01/06 14:21:31;;;;;;;3.45;1.65;;;;;;;;;;4924178;29;20405;-72
2022/01/06 14:23:56;;;;;;;2.38;2.10;;;;;;;;;;4938075;28;20074;-72
2022/01/06 14:26:22;;;;;;;4.07;2.15;;;;;;;;;;4952261;28;20043;-70
2022/01/06 14:28:47;;;;;;;5.38;2.10;;;;;;;;;;4935229;28;20047;-74
2022/01/06 14:31:14;;;;;;;2.83;1.80;;;;;;;;;;4947847;28;20241;-71
2022/01/06 14:33:44;;;;;;;4.15;2.03;;;;;;;;;;4933729;29;20058;-74
2022/01/06 14:36:13;;;;;;;3.67;2.17;;;;;;;;;;4943717;28;20049;-75
2022/01/06 14:38:41;;;;;;;2.92;2.15;;;;;;;;;;4932053;28;20135;-74
2022/01/06 14:41:08;;;;;;;3.45;1.92;;;;;;;;;;4935020;28;20051;-72
2022/01/06 14:43:34;;;;;;;2.03;1.60;;;;;;;;;;4939572;28;20039;-73
2022/01/06 14:46:01;;;;;;;6.43;2.17;;;;;;;;;;4948867;28;20585;-72
2022/01/06 14:48:26;;;;;;;2.72;1.90;;;;;;;;;;4942013;28;20055;-72
2022/01/06 14:50:52;;;;;;;4.72;2.35;;;;;;;;;;4932506;28;20039;-75
2022/01/06 14:53:18;;;;;;;3.17;2.00;;;;;;;;;;4938397;29;20047;-74